DAUL/LOO METAR and TAF weather

Enter ICAO airport designator
Station Type Date Time Source
DAUL METAR 2020/07/04 08:00 UTC NOAA

DAUL 040800Z 02020KT CAVOK 30/08 Q1020


Station Type Date Time Source
DAUL Decoded METAR 2020/07/04 08:00 UTC NOAA

Laghouat, Algeria (DAUL) 33-46N 002-56E 765M
Jul 04, 2020 - 04:00 AM EDT / 2020.07.04 0800 UTC
Wind: from the NNE (020 degrees) at 23 MPH (20 KT):0
Visibility: greater than 7 mile(s):0
Temperature: 86 F (30 C)
Dew Point: 46 F (8 C)
Relative Humidity: 25%
Pressure (altimeter): 30.12 in. Hg (1020 hPa)
ob: DAUL 040800Z 02020KT CAVOK 30/08 Q1020
cycle: 8

Station Type Date Time Source
DAUL TAF 2017/11/09 18:03 UTC NOAA

TAF DAUL 091700Z 0918/1009 02012KT 9999 SCT030 SCT100 PROB40
TEMPO 0918/0924 35020G30KT 4000 -TSRA FEW030CB

Example: see airport list